Latest Weather Observations for Munglinup West

IDW60801

Issued at 12:42 pm WST Sunday 18 August 2019 (issued every 10 minutes, with the page automatically refreshed every 10 minutes)

About weather observations | Map of weather stations | Latest weather observations for WA | Other Formats
Station Details ID: 012044 Name: MUNGLINUP WEST Lat: -33.55 Lon: 120.70 Height: 220.0 m
Data from the previous 72 hours. | See also: Recent months at Munglinup West
Date/Time
WST
Temp
°C
App
Temp
°C
Dew
Point
°C
Rel
Hum
%
Delta-T
°C
Wind Press
QNH
hPa
Press
MSL
hPa
Rain since
9am
mm
Dir  Spd
km/h
Gust
km/h
Spd
kts
Gust
kts
18/12:30pm 13.6 9.2 6.7 63 3.3 SSW 19 24 10 13 1031.9 1032.0 0.0
18/12:00pm 13.1 8.6 7.1 67 2.9 SW 20 30 11 16 1031.9 1032.0 0.0
18/11:30am 12.6 8.7 7.1 69 2.7 SSW 17 30 9 16 1032.0 1032.1 0.0
18/11:00am 12.4 8.0 6.5 67 2.8 SSW 19 28 10 15 1031.7 1031.8 0.0
18/10:30am 12.1 7.1 6.4 68 2.7 SSW 22 33 12 18 1031.7 1031.8 0.0
18/10:00am 11.3 7.5 8.9 85 1.2 SSW 19 30 10 16 1031.4 1031.5 0.0
18/09:30am 10.9 6.3 8.0 82 1.4 SSW 22 35 12 19 1031.0 1031.1 0.0
18/09:00am 9.6 7.8 9.6 100 0.0 SW 9 15 5 8 1030.8 1030.9 2.6
18/08:30am 8.7 7.1 8.7 100 0.0 SW 7 9 4 5 1030.5 1030.5 2.6
18/08:00am 7.2 5.8 7.2 100 0.0 NW 4 6 2 3 1029.9 1029.9 2.6
18/07:30am 6.1 4.1 6.1 100 0.0 W 6 7 3 4 1029.5 1029.5 2.6
18/07:00am 4.7 1.8 4.7 100 0.0 WNW 9 11 5 6 1028.9 1029.0 2.6
18/06:30am 3.9 1.2 3.9 100 0.0 WNW 7 9 4 5 1028.4 1028.5 2.6
18/06:00am 4.0 1.9 4.0 100 0.0 W 4 6 2 3 1028.2 1028.3 2.6
18/05:30am 4.5 2.0 4.5 100 0.0 W 7 11 4 6 1027.9 1028.0 2.6
18/05:00am 4.5 2.1 4.5 100 0.0 W 6 7 3 4 1027.7 1027.8 2.6
18/04:30am 5.0 2.5 5.0 100 0.0 SW 7 9 4 5 1027.5 1027.6 2.6
18/04:00am 5.9 2.9 5.9 100 0.0 SW 11 15 6 8 1027.0 1027.1 2.6
18/03:30am 6.2 3.2 6.2 100 0.0 WSW 11 19 6 10 1026.8 1026.8 2.6
18/03:00am 6.1 2.7 6.1 100 0.0 WSW 13 19 7 10 1026.5 1026.5 2.6
18/02:30am 6.4 2.3 6.4 100 0.0 WSW 17 22 9 12 1026.6 1026.6 2.6
18/02:00am 6.8 2.5 6.8 100 0.0 WSW 19 26 10 14 1026.3 1026.3 2.6
18/01:30am 6.9 1.6 6.9 100 0.0 WSW 24 33 13 18 1026.1 1026.1 2.6
18/01:00am 7.2 1.6 7.2 100 0.0 WSW 26 39 14 21 1026.0 1026.0 2.6
18/12:30am 7.2 2.0 7.2 100 0.0 W 24 32 13 17 1025.7 1025.7 2.2
18/12:00am 7.5 2.7 7.5 100 0.0 W 22 33 12 18 1025.4 1025.4 2.2
 
Date/Time
WST
Temp
°C
App
Temp
°C
Dew
Point
°C
Rel
Hum
%
Delta-T
°C
Wind Press
QNH
hPa
Press
MSL
hPa
Rain since
9am
mm
Dir  Spd
km/h
Gust
km/h
Spd
kts
Gust
kts
17/11:30pm 7.4 2.2 7.4 100 0.0 W 24 35 13 19 1025.2 1025.2 2.2
17/11:00pm 7.1 1.9 7.1 100 0.0 W 24 32 13 17 1025.2 1025.2 2.2
17/10:30pm 7.0 2.1 7.0 100 0.0 W 22 32 12 17 1025.0 1025.0 2.2
17/10:00pm 7.1 2.2 7.1 100 0.0 W 22 30 12 16 1024.9 1024.9 2.2
17/09:30pm 7.3 2.5 7.3 100 0.0 W 22 28 12 15 1024.7 1024.7 2.2
17/09:00pm 7.6 2.5 7.6 100 0.0 W 24 32 13 17 1024.6 1024.6 2.2
17/08:30pm 7.5 3.1 7.5 100 0.0 W 20 26 11 14 1024.5 1024.5 2.2
17/08:00pm 7.5 2.7 7.5 100 0.0 W 22 33 12 18 1024.3 1024.4 2.2
17/07:30pm 8.1 3.5 8.1 100 0.0 WSW 22 32 12 17 1023.9 1024.0 2.2
17/07:00pm 8.1 3.9 8.1 100 0.0 W 20 28 11 15 1023.7 1023.8 2.2
17/06:30pm 8.1 4.1 8.1 100 0.0 W 19 26 10 14 1023.3 1023.4 2.2
17/06:00pm 7.6 4.6 7.6 100 0.0 W 13 17 7 9 1023.3 1023.4 2.2
17/05:30pm 8.1 5.2 8.1 100 0.0 SW 13 17 7 9 1022.9 1022.9 2.2
17/05:00pm 8.9 4.9 8.3 96 0.3 WSW 19 28 10 15 1022.5 1022.5 2.2
17/04:30pm 8.9 3.5 8.1 95 0.4 WSW 26 35 14 19 1022.2 1022.2 2.2
17/04:00pm 8.9 4.9 8.9 100 0.0 WSW 20 32 11 17 1022.0 1022.0 2.2
17/03:30pm 9.1 4.7 9.1 100 0.0 SW 22 30 12 16 1021.8 1021.8 2.2
17/03:00pm 8.0 2.2 8.0 100 0.0 SW 28 41 15 22 1021.5 1021.5 2.2
17/02:30pm 9.0 3.5 9.0 100 0.0 WSW 28 46 15 25 1020.8 1020.8 2.0
17/02:00pm 6.9 0.1 6.9 100 0.0 SSW 32 44 17 24 1021.0 1021.0 2.0
17/01:30pm 9.6 3.4 9.3 98 0.2 WSW 32 46 17 25 1020.4 1020.4 1.6
17/01:11pm 8.8 2.3 8.8 100 0.0 WSW 33 52 18 28 1020.3 1020.3 1.6
17/01:00pm 8.7 1.0 8.7 100 0.0 WSW 39 56 21 30 1020.4 1020.4 1.6
17/12:30pm 7.0 -0.3 7.0 100 0.0 WSW 35 56 19 30 1019.9 1019.9 1.6
17/12:14pm 9.1 2.6 9.1 100 0.0 WSW 33 63 18 34 1020.1 1020.1 1.4
17/12:00pm 8.7 3.5 8.7 100 0.0 WSW 26 33 14 18 1019.6 1019.7 1.4
17/11:44am 7.5 -1.2 7.5 100 0.0 WSW 43 70 23 38 1019.9 1019.9 1.2
17/11:41am 8.0 0.5 8.0 100 0.0 WSW 37 70 20 38 1019.6 1019.7 1.2
17/11:39am 9.5 3.1 9.5 100 0.0 WSW 33 63 18 34 1019.4 1019.5 1.2
17/11:30am 9.8 4.5 9.8 100 0.0 WSW 28 37 15 20 1019.4 1019.5 1.2
17/11:00am 8.2 3.2 8.2 100 0.0 WSW 24 35 13 19 1019.2 1019.3 1.2
17/10:30am 8.0 1.8 8.0 100 0.0 SW 30 39 16 21 1019.0 1019.0 1.0
17/10:07am 7.2 0.5 7.2 100 0.0 WSW 32 50 17 27 1018.6 1018.6 1.0
17/10:00am 7.0 -0.7 7.0 100 0.0 WSW 37 52 20 28 1018.7 1018.7 1.0
17/09:30am 8.2 2.5 8.2 100 0.0 WSW 28 39 15 21 1017.7 1017.7 0.0
17/09:00am 7.6 0.0 7.6 100 0.0 W 37 46 20 25 1017.4 1017.4 1.0
17/08:30am 7.6 1.0 7.6 100 0.0 W 32 48 17 26 1016.9 1016.9 1.0
17/08:00am 7.1 0.7 7.1 100 0.0 W 30 44 16 24 1016.5 1016.5 1.0
17/07:30am 6.7 0.6 6.7 100 0.0 W 28 39 15 21 1015.9 1015.9 1.0
17/07:00am 6.2 0.4 6.2 100 0.0 W 26 41 14 22 1015.2 1015.1 1.0
17/06:30am 6.1 0.3 6.1 100 0.0 W 26 35 14 19 1014.8 1014.8 1.0
17/06:00am 6.2 0.4 6.2 100 0.0 W 26 35 14 19 1014.3 1014.3 1.0
17/05:30am 6.6 1.3 6.6 100 0.0 W 24 33 13 18 1013.7 1013.7 1.0
17/05:00am 7.0 1.0 7.0 100 0.0 W 28 39 15 21 1013.1 1013.1 1.0
17/04:30am 7.2 1.2 7.2 100 0.0 W 28 39 15 21 1012.7 1012.7 1.0
17/04:00am 7.3 2.5 7.3 100 0.0 WNW 22 33 12 18 1012.0 1012.0 1.0
17/03:30am 7.4 2.2 7.4 100 0.0 WNW 24 35 13 19 1011.9 1011.9 1.0
17/03:00am 7.5 2.0 7.5 100 0.0 WNW 26 43 14 23 1011.5 1011.4 1.0
17/02:30am 7.4 3.0 7.4 100 0.0 WNW 20 35 11 19 1011.1 1011.0 0.8
17/02:00am 7.5 3.1 7.5 100 0.0 WNW 20 32 11 17 1010.6 1010.5 0.8
17/01:30am 7.5 3.3 7.5 100 0.0 NW 19 28 10 15 1010.6 1010.5 0.8
17/01:00am 7.5 3.7 7.5 100 0.0 NW 17 22 9 12 1011.0 1010.9 0.8
17/12:30am 7.7 3.9 7.7 100 0.0 WNW 17 24 9 13 1010.9 1010.8 0.4
17/12:00am 8.2 3.2 8.2 100 0.0 W 24 33 13 18 1010.9 1010.8 0.0
 
Date/Time
WST
Temp
°C
App
Temp
°C
Dew
Point
°C
Rel
Hum
%
Delta-T
°C
Wind Press
QNH
hPa
Press
MSL
hPa
Rain since
9am
mm
Dir  Spd
km/h
Gust
km/h
Spd
kts
Gust
kts
16/11:30pm 8.3 1.8 8.3 100 0.0 W 32 43 17 23 1010.7 1010.6 0.0
16/11:00pm 8.9 2.6 8.9 100 0.0 W 32 43 17 23 1010.7 1010.6 0.0
16/10:47pm 9.3 2.2 8.2 93 0.5 WNW 35 61 19 33 1010.8 1010.7 0.0
16/10:43pm 11.7 5.0 5.6 66 2.9 NW 30 61 16 33 1010.7 1010.6 0.0
16/10:42pm 12.7 6.2 4.9 59 3.6 NNW 28 54 15 29 1010.3 1010.2 0.0
16/10:30pm 12.6 6.4 4.3 57 3.8 NNW 26 44 14 24 1009.2 1009.2 0.0
16/10:00pm 12.6 5.2 3.8 55 4.0 NNW 32 44 17 24 1009.1 1009.1 0.0
16/09:30pm 12.2 6.2 3.2 54 4.0 N 24 37 13 20 1009.9 1009.9 0.0
16/09:00pm 12.2 6.1 2.6 52 4.2 N 24 39 13 21 1010.3 1010.2 0.0
16/08:30pm 12.5 6.3 2.4 50 4.4 N 24 33 13 18 1010.6 1010.5 0.0
16/08:00pm 12.4 6.7 3.1 53 4.2 N 22 33 12 18 1010.9 1010.8 0.0
16/07:30pm 12.1 7.0 4.1 58 3.6 N 20 26 11 14 1011.3 1011.2 0.0
16/07:00pm 12.8 7.4 4.5 57 3.8 N 22 32 12 17 1011.5 1011.4 0.0
16/06:30pm 13.2 8.2 4.4 55 4.1 NNW 20 30 11 16 1012.2 1012.2 0.0
16/06:00pm 13.6 8.2 4.5 54 4.2 NW 22 32 12 17 1012.5 1012.5 0.0
16/05:30pm 14.2 8.5 4.8 53 4.4 NW 24 37 13 20 1012.7 1012.7 0.0
16/05:00pm 15.5 9.5 3.3 44 5.6 NW 24 44 13 24 1012.8 1012.8 0.0
16/04:30pm 16.3 9.6 3.4 42 6.0 NW 28 46 15 25 1012.7 1012.7 0.0
16/04:18pm 16.6 9.8 3.3 41 6.2 NW 28 46 15 25 1012.9 1012.9 0.0
16/04:00pm 17.2 11.7 3.8 41 6.3 NW 22 35 12 19 1013.1 1013.1 0.0
16/03:30pm 17.6 11.8 4.2 41 6.4 NW 24 39 13 21 1013.1 1013.1 0.0
16/03:00pm 18.2 11.9 3.7 38 6.9 NW 26 35 14 19 1013.7 1013.7 0.0
16/02:30pm 18.2 11.8 3.3 37 7.0 NW 26 41 14 22 1014.2 1014.2 0.0
16/02:00pm 18.0 11.0 4.2 40 6.6 NNW 30 44 16 24 1014.6 1014.6 0.0
16/01:34pm 17.6 11.2 5.2 44 6.0 NNW 28 46 15 25 1015.2 1015.1 0.0
16/01:30pm 17.3 10.3 4.3 42 6.2 NNW 30 46 16 25 1015.3 1015.2 0.0
16/01:27pm 17.6 11.1 4.6 42 6.3 NNW 28 46 15 25 1015.2 1015.1 0.0
16/01:00pm 17.5 11.4 4.8 43 6.1 NNW 26 43 14 23 1015.9 1015.9 0.0
16/12:30pm 16.6 10.1 4.6 45 5.7 NNW 28 44 15 24 1016.5 1016.5 0.0
16/12:00pm 15.9 9.0 4.6 47 5.4 NNW 30 44 16 24 1017.3 1017.3 0.0
16/11:51am 16.1 9.6 4.8 47 5.4 NNW 28 46 15 25 1017.6 1017.6 0.0
16/11:30am 15.7 9.4 5.6 51 4.9 NNW 28 37 15 20 1018.1 1018.1 0.0
16/11:00am 14.6 8.4 6.2 57 4.1 NNW 28 41 15 22 1018.7 1018.7 0.0
16/10:30am 14.6 9.3 6.9 60 3.8 NNW 24 33 13 18 1019.2 1019.3 0.0
16/10:00am 13.7 9.4 6.8 63 3.4 NNW 19 30 10 16 1019.6 1019.7 0.0
16/09:30am 12.7 7.0 6.7 67 2.9 NW 26 35 14 19 1020.3 1020.3 0.0
16/09:00am 11.6 8.2 7.7 77 1.9 NNW 15 20 8 11 1020.7 1020.7 0.2
16/08:30am 10.4 6.3 8.0 85 1.2 NW 19 24 10 13 1020.8 1020.8 0.2
16/08:00am 8.7 5.9 8.7 100 0.0 NW 13 19 7 10 1020.8 1020.8 0.2
16/07:30am 7.0 4.2 7.0 100 0.0 NW 11 17 6 9 1020.9 1020.9 0.2
16/07:00am 5.7 3.0 5.7 100 0.0 NW 9 13 5 7 1020.9 1020.9 0.2
16/06:30am 5.5 2.4 5.5 100 0.0 NNW 11 17 6 9 1020.8 1020.8 0.2
16/06:00am 5.8 2.8 5.8 100 0.0 NNW 11 15 6 8 1020.8 1020.8 0.2
16/05:30am 6.1 3.1 6.1 100 0.0 NNW 11 17 6 9 1020.6 1020.6 0.0
16/05:00am 6.3 3.4 6.3 100 0.0 NW 11 17 6 9 1020.5 1020.5 0.0
16/04:30am 5.9 3.3 5.9 100 0.0 NNW 9 13 5 7 1020.5 1020.5 0.0
16/04:00am 5.5 2.8 5.5 100 0.0 N 9 13 5 7 1020.6 1020.6 0.0
16/03:30am 6.1 3.1 6.1 100 0.0 NNW 11 15 6 8 1020.8 1020.8 0.0
16/03:00am 6.5 3.6 6.5 100 0.0 NNW 11 13 6 7 1020.8 1020.8 0.0
16/02:30am 6.4 3.5 6.4 100 0.0 NNW 11 15 6 8 1020.9 1020.9 0.0
16/02:00am 6.1 3.1 6.1 100 0.0 NNW 11 15 6 8 1021.1 1021.1 0.0
16/01:30am 5.8 2.8 5.8 100 0.0 NNW 11 13 6 7 1021.4 1021.4 0.0
16/01:00am 5.5 2.4 5.5 100 0.0 N 11 13 6 7 1021.8 1021.8 0.0
16/12:30am 5.8 2.4 5.8 100 0.0 N 13 15 7 8 1022.0 1022.0 0.0
16/12:00am 5.9 2.9 5.9 100 0.0 N 11 13 6 7 1022.0 1022.0 0.0
 
Date/Time
WST
Temp
°C
App
Temp
°C
Dew
Point
°C
Rel
Hum
%
Delta-T
°C
Wind Press
QNH
hPa
Press
MSL
hPa
Rain since
9am
mm
Dir  Spd
km/h
Gust
km/h
Spd
kts
Gust
kts
15/11:30pm 6.5 4.0 6.5 100 0.0 N 9 13 5 7 1022.1 1022.1 0.0
15/11:00pm 6.3 4.1 6.3 100 0.0 N 7 11 4 6 1022.4 1022.4 0.0
15/10:30pm 6.3 4.1 6.3 100 0.0 N 7 9 4 5 1022.6 1022.6 0.0
15/10:00pm 6.4 3.9 6.4 100 0.0 NNE 9 11 5 6 1022.5 1022.5 0.0
15/09:30pm 6.4 3.9 6.4 100 0.0 N 9 11 5 6 1022.6 1022.6 0.0
15/09:00pm 6.9 4.5 6.9 100 0.0 NNE 9 11 5 6 1022.6 1022.6 0.0
15/08:30pm 8.1 6.0 8.1 100 0.0 NNE 9 11 5 6 1022.6 1022.6 0.0
15/08:00pm 8.2 6.1 8.2 100 0.0 NNE 9 11 5 6 1022.6 1022.6 0.0
15/07:30pm 9.4 8.0 9.4 100 0.0 NE 7 11 4 6 1022.4 1022.4 0.0
15/07:00pm 7.5 5.8 7.5 100 0.0 ENE 6 6 3 3 1022.3 1022.3 0.0
15/06:30pm 8.0 6.8 8.0 100 0.0 E 4 6 2 3 1021.9 1021.9 0.0
15/06:00pm 9.4 8.2 9.4 100 0.0 ESE 6 6 3 3 1021.6 1021.6 0.0
15/05:30pm 10.6 9.2 8.9 89 0.9 SE 6 7 3 4 1021.4 1021.4 0.0
15/05:00pm 12.6 11.0 8.7 77 2.0 SSW 7 9 4 5 1021.3 1021.3 0.0
15/04:30pm 13.7 12.3 9.0 73 2.4 SSW 6 9 3 5 1021.1 1021.1 0.0
15/04:00pm 13.5 11.0 8.4 71 2.6 SSW 11 17 6 9 1020.9 1020.9 0.0
15/03:30pm 14.2 11.7 8.4 68 2.9 SW 11 20 6 11 1021.0 1021.0 0.0
15/03:00pm 13.8 11.3 8.4 70 2.7 SSW 11 17 6 9 1020.8 1020.8 0.0
15/02:30pm 13.6 10.8 8.7 72 2.5 SW 13 19 7 10 1020.7 1020.7 0.0
15/02:00pm 13.3 10.8 8.0 70 2.6 SW 11 20 6 11 1020.8 1020.8 0.0
15/01:30pm 14.0 10.7 8.2 68 2.9 SW 15 24 8 13 1020.9 1020.9 0.0
15/01:00pm 13.6 10.6 7.6 67 3.0 SW 13 20 7 11 1021.0 1021.0 0.0

Other formats

Comma delimited format used in spreadsheet applications
http://www.bom.gov.au/fwo/IDW60801/IDW60801.95644.axf

JavaScript Object Notation format (JSON) in row-major order
http://www.bom.gov.au/fwo/IDW60801/IDW60801.95644.json

Data quality

Most of these data are generated automatically and are frequently updated. Quality checks on data are not normally performed. It is possible for incorrect values to appear. Refer to information at About Latest Weather Observations and please check the disclaimer before using these data.